Time;durP1;ratioP1;P1;durP2;ratioP2;P2;SDS_P1;SDS_P2;PMS_P1;PMS_P2;Temp;Humidity;BMP_temperature;BMP_pressure;BME280_temperature;BME280_humidity;BME280_pressure;Samples;Min_cycle;Max_cycle;Signal;HPM_P1;HPM_P2
2023/08/24 00:00:19;;;;;;;;;;;26.40;63.50;;;;;;5096592;28;20437;-60
2023/08/24 00:02:46;;;;;;;;;;;26.40;63.50;;;;;;5096004;28;19924;-60
2023/08/24 00:05:14;;;;;;;;;;;26.40;63.50;;;;;;5096790;28;19924;-60
2023/08/24 00:07:41;;;;;;;;;;;26.40;64.10;;;;;;5096083;28;19978;-60
2023/08/24 00:10:08;;;;;;;;;;;26.40;63.50;;;;;;5096757;28;19924;-60
2023/08/24 00:12:36;;;;;;;;;;;26.40;63.60;;;;;;5095294;28;19924;-60
2023/08/24 00:15:03;;;;;;;;;;;26.30;63.50;;;;;;5096580;28;19977;-60
2023/08/24 00:17:30;;;;;;;;;;;26.40;63.60;;;;;;5096686;28;20326;-60
2023/08/24 00:19:57;;;;;;;;;;;26.40;63.60;;;;;;5096218;28;19924;-60
2023/08/24 00:22:24;;;;;;;;;;;26.40;63.60;;;;;;5096723;28;19928;-60
2023/08/24 00:24:51;;;;;;;;;;;26.40;63.60;;;;;;5096669;28;20360;-60
2023/08/24 00:27:18;;;;;;;;;;;26.30;63.50;;;;;;5096634;28;19924;-61
2023/08/24 00:29:45;;;;;;;;;;;26.40;63.60;;;;;;5096214;28;19982;-61
2023/08/24 00:32:12;;;;;;;;;;;26.40;63.60;;;;;;5096327;28;19977;-60
2023/08/24 00:34:39;;;;;;;;;;;26.40;63.60;;;;;;5096063;28;20398;-60
2023/08/24 00:37:06;;;;;;;;;;;26.30;63.60;;;;;;5096104;28;19924;-60
2023/08/24 00:39:33;;;;;;;;;;;26.40;63.60;;;;;;5096014;28;20384;-60
2023/08/24 00:42:00;;;;;;;;;;;26.30;63.60;;;;;;5095446;28;19924;-61
2023/08/24 00:44:27;;;;;;;;;;;26.30;63.60;;;;;;5094428;28;19955;-60
2023/08/24 00:46:54;;;;;;;;;;;26.30;63.60;;;;;;5096077;28;19970;-61
2023/08/24 00:49:22;;;;;;;;;;;26.30;63.60;;;;;;5095912;28;20295;-60
2023/08/24 00:51:49;;;;;;;;;;;26.30;63.60;;;;;;5096115;28;20086;-60
2023/08/24 00:54:17;;;;;;;;;;;26.30;63.60;;;;;;5095122;28;19989;-60
2023/08/24 00:56:44;;;;;;;;;;;26.30;63.60;;;;;;5095915;28;19924;-61
2023/08/24 00:59:11;;;;;;;;;;;26.30;63.60;;;;;;5096043;28;19924;-60
2023/08/24 01:01:40;;;;;;;;;;;26.30;63.70;;;;;;5095678;28;20380;-60
2023/08/24 01:04:07;;;;;;;;;;;26.30;63.60;;;;;;5095645;28;20381;-60
2023/08/24 01:06:34;;;;;;;;;;;26.30;63.60;;;;;;5095662;28;19928;-60
2023/08/24 01:09:01;;;;;;;;;;;26.30;63.60;;;;;;5095599;28;19928;-60
2023/08/24 01:11:48;;;;;;;;;;;26.30;63.60;;;;;;5095352;28;19924;-60
2023/08/24 01:14:21;;;;;;;;;;;26.30;63.60;;;;;;5094429;28;19924;-61
2023/08/24 01:16:48;;;;;;;;;;;26.30;63.60;;;;;;5095521;28;19971;-60
2023/08/24 01:19:25;;;;;;;;;;;26.30;63.60;;;;;;5095624;28;20292;-60
2023/08/24 01:21:54;;;;;;;;;;;26.30;63.60;;;;;;5094837;28;19973;-60
2023/08/24 01:24:30;;;;;;;;;;;26.30;63.60;;;;;;5094971;28;19931;-61
2023/08/24 01:26:58;;;;;;;;;;;26.30;63.60;;;;;;5094439;28;20015;-60
2023/08/24 01:29:26;;;;;;;;;;;26.30;63.60;;;;;;5095071;28;19924;-60
2023/08/24 01:31:53;;;;;;;;;;;26.30;63.60;;;;;;5094761;28;20304;-61
2023/08/24 01:34:20;;;;;;;;;;;26.30;63.60;;;;;;5094243;28;19981;-61
2023/08/24 01:36:47;;;;;;;;;;;26.30;63.60;;;;;;5094745;28;19977;-61
2023/08/24 01:39:28;;;;;;;;;;;26.30;63.60;;;;;;5095309;28;19951;-60
2023/08/24 01:42:00;;;;;;;;;;;26.30;63.60;;;;;;5094761;28;20373;-61
2023/08/24 01:44:29;;;;;;;;;;;26.30;63.60;;;;;;5093704;28;19924;-61
2023/08/24 01:46:57;;;;;;;;;;;26.30;63.50;;;;;;5094688;28;20368;-60
2023/08/24 01:49:25;;;;;;;;;;;26.30;63.50;;;;;;5094926;28;19924;-60
2023/08/24 01:51:53;;;;;;;;;;;26.30;63.50;;;;;;5094741;28;19932;-60
2023/08/24 01:54:20;;;;;;;;;;;26.30;63.50;;;;;;5094505;28;20389;-61
2023/08/24 01:56:47;;;;;;;;;;;26.30;63.50;;;;;;5094774;28;20372;-60
2023/08/24 01:59:14;;;;;;;;;;;26.30;63.50;;;;;;5094785;28;19954;-60
2023/08/24 02:01:41;;;;;;;;;;;26.30;63.50;;;;;;5094819;28;19924;-61
2023/08/24 02:04:08;;;;;;;;;;;26.30;63.60;;;;;;5094511;28;19924;-60
2023/08/24 02:06:35;;;;;;;;;;;26.30;63.50;;;;;;5094231;28;19924;-60
2023/08/24 02:09:02;;;;;;;;;;;26.30;63.60;;;;;;5093556;28;20277;-61
2023/08/24 02:11:29;;;;;;;;;;;26.30;63.60;;;;;;5093966;28;20384;-61
2023/08/24 02:13:56;;;;;;;;;;;26.20;63.50;;;;;;5094430;28;19924;-60
2023/08/24 02:16:23;;;;;;;;;;;26.30;63.60;;;;;;5094144;28;19928;-60
2023/08/24 02:18:50;;;;;;;;;;;26.30;63.60;;;;;;5094253;28;20018;-60
2023/08/24 02:21:17;;;;;;;;;;;26.20;63.50;;;;;;5093912;28;19987;-60
2023/08/24 02:23:44;;;;;;;;;;;26.20;63.50;;;;;;5094030;28;19954;-61
2023/08/24 02:26:12;;;;;;;;;;;26.30;63.60;;;;;;5094590;28;19924;-60
2023/08/24 02:28:39;;;;;;;;;;;26.20;63.50;;;;;;5094158;28;20388;-60
2023/08/24 02:31:06;;;;;;;;;;;26.20;63.50;;;;;;5094169;28;20422;-60
2023/08/24 02:33:33;;;;;;;;;;;26.20;63.50;;;;;;5094178;28;19954;-60
2023/08/24 02:36:00;;;;;;;;;;;26.20;64.10;;;;;;5094128;28;19924;-61
2023/08/24 02:38:27;;;;;;;;;;;26.20;63.50;;;;;;5094310;28;19924;-60
2023/08/24 02:41:04;;;;;;;;;;;26.20;63.50;;;;;;5093877;28;19924;-60
2023/08/24 02:43:31;;;;;;;;;;;26.20;63.50;;;;;;5093877;28;19928;-60
2023/08/24 02:46:03;;;;;;;;;;;26.20;63.50;;;;;;5093755;28;19977;-61
2023/08/24 02:48:31;;;;;;;;;;;26.20;63.50;;;;;;5093362;28;20106;-60
2023/08/24 02:50:59;;;;;;;;;;;26.20;63.50;;;;;;5094009;28;20283;-61
2023/08/24 02:53:26;;;;;;;;;;;26.20;63.50;;;;;;5092359;28;19924;-60
2023/08/24 02:55:54;;;;;;;;;;;26.20;63.50;;;;;;5093768;28;19998;-60
2023/08/24 02:58:21;;;;;;;;;;;26.20;63.50;;;;;;5093862;28;19928;-60
2023/08/24 03:00:48;;;;;;;;;;;26.20;63.50;;;;;;5093618;28;19928;-60
2023/08/24 03:03:15;;;;;;;;;;;26.20;63.60;;;;;;5093964;28;19931;-61
2023/08/24 03:05:56;;;;;;;;;;;26.20;63.60;;;;;;5093817;28;19946;-61
2023/08/24 03:08:23;;;;;;;;;;;26.20;63.70;;;;;;5093327;28;20429;-60
2023/08/24 03:10:50;;;;;;;;;;;26.20;63.60;;;;;;5093934;28;19970;-60
2023/08/24 03:13:17;;;;;;;;;;;26.20;63.60;;;;;;5093677;28;19946;-60
2023/08/24 03:15:44;;;;;;;;;;;26.20;63.60;;;;;;5093732;28;19924;-60
2023/08/24 03:18:12;;;;;;;;;;;26.10;63.60;;;;;;5093446;28;19931;-60
2023/08/24 03:20:40;;;;;;;;;;;26.10;63.60;;;;;;5097634;28;19946;-60
2023/08/24 03:23:07;;;;;;;;;;;26.20;63.70;;;;;;5097903;28;19924;-60
2023/08/24 03:25:38;;;;;;;;;;;26.20;63.60;;;;;;5097456;28;19931;-60
2023/08/24 03:28:07;;;;;;;;;;;26.20;63.60;;;;;;5097555;28;19947;-61
2023/08/24 03:30:35;;;;;;;;;;;26.20;63.60;;;;;;5097279;28;20395;-61
2023/08/24 03:33:03;;;;;;;;;;;26.20;63.50;;;;;;5089118;28;20368;-60
2023/08/24 03:35:30;;;;;;;;;;;26.20;63.50;;;;;;5093442;28;19924;-60
2023/08/24 03:37:57;;;;;;;;;;;26.20;63.50;;;;;;5096987;28;20309;-61
2023/08/24 03:40:25;;;;;;;;;;;26.20;63.50;;;;;;5096803;28;20354;-60
2023/08/24 03:42:54;;;;;;;;;;;26.20;63.50;;;;;;5084504;28;19924;-61
2023/08/24 03:45:21;;;;;;;;;;;26.20;63.50;;;;;;5086321;28;19928;-61
2023/08/24 03:47:48;;;;;;;;;;;26.20;63.50;;;;;;5085541;28;19935;-60
2023/08/24 03:50:16;;;;;;;;;;;26.20;63.50;;;;;;5088790;28;19924;-61
2023/08/24 03:52:43;;;;;;;;;;;26.20;63.50;;;;;;5091903;28;19965;-60
2023/08/24 03:55:10;;;;;;;;;;;26.20;63.50;;;;;;5086826;28;19940;-60
2023/08/24 03:57:37;;;;;;;;;;;26.20;63.50;;;;;;5092427;28;19932;-61
2023/08/24 04:00:07;;;;;;;;;;;26.20;63.50;;;;;;5090327;28;19931;-60
2023/08/24 04:02:34;;;;;;;;;;;26.20;63.40;;;;;;5096275;28;19930;-60
2023/08/24 04:05:01;;;;;;;;;;;26.20;63.40;;;;;;5096995;28;19928;-60
2023/08/24 04:07:28;;;;;;;;;;;26.30;63.50;;;;;;5096414;28;19924;-60
2023/08/24 04:09:55;;;;;;;;;;;26.20;63.40;;;;;;5095203;28;19932;-60
2023/08/24 04:12:22;;;;;;;;;;;26.30;63.50;;;;;;5094951;28;20333;-60
2023/08/24 04:14:49;;;;;;;;;;;26.20;63.40;;;;;;5086944;28;20338;-60
2023/08/24 04:17:18;;;;;;;;;;;26.20;63.40;;;;;;5091283;28;19924;-60
2023/08/24 04:19:45;;;;;;;;;;;26.20;63.40;;;;;;5075835;28;19958;-60
2023/08/24 04:22:12;;;;;;;;;;;26.20;63.40;;;;;;5076053;28;19978;-62
2023/08/24 04:24:39;;;;;;;;;;;26.20;63.40;;;;;;5075652;28;19924;-60
2023/08/24 04:27:06;;;;;;;;;;;26.20;63.30;;;;;;5081798;28;19928;-60
2023/08/24 04:29:34;;;;;;;;;;;26.20;63.60;;;;;;5085785;28;20427;-60
2023/08/24 04:32:01;;;;;;;;;;;26.30;63.30;;;;;;5084073;28;19928;-60
2023/08/24 04:34:28;;;;;;;;;;;26.30;63.30;;;;;;5082377;28;19928;-60
2023/08/24 04:36:55;;;;;;;;;;;26.20;63.20;;;;;;5084664;28;19970;-60
2023/08/24 04:39:22;;;;;;;;;;;26.20;63.50;;;;;;5085696;28;19993;-60
2023/08/24 04:41:49;;;;;;;;;;;26.10;63.60;;;;;;5091212;28;19924;-60
2023/08/24 04:44:16;;;;;;;;;;;26.00;63.10;;;;;;5074477;28;19924;-61
2023/08/24 04:46:43;;;;;;;;;;;25.80;60.70;;;;;;5075218;28;19924;-60
2023/08/24 04:49:10;;;;;;;;;;;25.60;58.40;;;;;;5075084;28;19970;-60
2023/08/24 04:51:37;;;;;;;;;;;25.40;56.80;;;;;;5075423;28;19970;-60
2023/08/24 04:54:04;;;;;;;;;;;25.10;55.20;;;;;;5075126;28;19924;-60
2023/08/24 04:56:31;;;;;;;;;;;24.90;54.80;;;;;;5097622;28;20306;-60
2023/08/24 04:59:00;;;;;;;;;;;24.60;53.90;;;;;;5095298;28;19928;-60
2023/08/24 05:01:27;;;;;;;;;;;24.30;53.20;;;;;;5095788;28;19924;-60
2023/08/24 05:03:54;;;;;;;;;;;24.10;53.40;;;;;;5091107;28;19954;-59
2023/08/24 05:06:21;;;;;;;;;;;23.80;54.00;;;;;;5085484;28;19958;-60
2023/08/24 05:08:48;;;;;;;;;;;23.60;53.70;;;;;;5085767;28;19928;-60
2023/08/24 05:11:23;;;;;;;;;;;23.30;52.70;;;;;;5085674;28;19931;-59
2023/08/24 05:13:50;;;;;;;;;;;23.10;52.20;;;;;;5083347;28;20418;-59
2023/08/24 05:16:17;;;;;;;;;;;22.90;52.50;;;;;;5080503;28;20020;-59
2023/08/24 05:18:45;;;;;;;;;;;22.60;53.00;;;;;;5082718;28;20027;-60
2023/08/24 05:21:13;;;;;;;;;;;22.50;53.60;;;;;;5081579;28;20021;-58
2023/08/24 05:23:40;;;;;;;;;;;22.20;51.60;;;;;;5079876;28;19928;-58
2023/08/24 05:26:07;;;;;;;;;;;22.10;52.00;;;;;;5083804;28;19978;-59
2023/08/24 05:28:34;;;;;;;;;;;21.90;52.50;;;;;;5072280;28;19974;-59
2023/08/24 05:31:01;;;;;;;;;;;21.70;52.90;;;;;;5071056;28;19932;-58
2023/08/24 05:33:30;;;;;;;;;;;21.50;52.40;;;;;;5077847;28;19925;-60
2023/08/24 05:35:58;;;;;;;;;;;21.40;53.10;;;;;;5074671;28;20424;-58
2023/08/24 05:38:25;;;;;;;;;;;21.30;56.40;;;;;;5080087;28;20328;-59
2023/08/24 05:40:53;;;;;;;;;;;21.20;57.60;;;;;;5075073;28;19924;-59
2023/08/24 05:43:20;;;;;;;;;;;21.20;56.90;;;;;;5070622;28;19990;-60
2023/08/24 05:45:48;;;;;;;;;;;21.10;60.90;;;;;;5076020;28;19936;-59
2023/08/24 05:48:16;;;;;;;;;;;21.00;61.40;;;;;;5078232;28;19939;-59
2023/08/24 05:50:46;;;;;;;;;;;20.90;62.80;;;;;;5084290;28;19931;-59
2023/08/24 05:53:13;;;;;;;;;;;20.80;61.50;;;;;;5068347;28;20708;-59
2023/08/24 05:55:41;;;;;;;;;;;20.70;63.60;;;;;;5076446;28;20357;-60
2023/08/24 05:58:08;;;;;;;;;;;20.60;59.00;;;;;;5079255;28;20010;-59
2023/08/24 06:00:35;;;;;;;;;;;20.60;59.50;;;;;;5079319;28;19928;-59
2023/08/24 06:03:02;;;;;;;;;;;20.60;59.00;;;;;;5073806;28;19934;-59
2023/08/24 06:05:31;;;;;;;;;;;20.60;61.60;;;;;;5078287;28;19999;-60
2023/08/24 06:07:58;;;;;;;;;;;20.60;61.40;;;;;;5077599;28;19930;-59
2023/08/24 06:10:26;;;;;;;;;;;20.50;63.80;;;;;;5073603;28;20046;-58
2023/08/24 06:12:54;;;;;;;;;;;20.50;63.30;;;;;;5071312;28;20015;-59
2023/08/24 06:15:24;;;;;;;;;;;20.50;64.90;;;;;;5073858;28;19935;-59
2023/08/24 06:17:51;;;;;;;;;;;20.40;65.70;;;;;;5074989;28;20350;-60
2023/08/24 06:20:22;;;;;;;;;;;20.40;65.80;;;;;;5074182;28;20292;-60
2023/08/24 06:22:50;;;;;;;;;;;20.40;65.70;;;;;;5076307;28;19939;-66
2023/08/24 06:25:17;;;;;;;;;;;20.30;66.30;;;;;;5070577;28;19925;-65
2023/08/24 06:27:45;;;;;;;;;;;20.30;66.10;;;;;;5080635;28;20337;-65
2023/08/24 06:30:12;;;;;;;;;;;20.30;66.00;;;;;;5072115;28;19936;-65
2023/08/24 06:32:39;;;;;;;;;;;20.30;67.20;;;;;;5070064;28;19978;-65
2023/08/24 06:35:06;;;;;;;;;;;20.30;66.60;;;;;;5071824;28;19968;-64
2023/08/24 06:37:33;;;;;;;;;;;20.30;67.30;;;;;;5072914;28;19985;-65
2023/08/24 06:40:03;;;;;;;;;;;20.30;66.70;;;;;;5073714;28;20330;-65
2023/08/24 06:42:31;;;;;;;;;;;20.30;66.60;;;;;;5076316;28;19942;-67
2023/08/24 06:44:57;;;;;;;;;;;20.40;66.90;;;;;;5074936;28;19931;-66
2023/08/24 06:47:25;;;;;;;;;;;20.30;67.00;;;;;;5083999;28;19930;-65
2023/08/24 06:49:52;;;;;;;;;;;20.30;67.60;;;;;;5081430;28;20300;-64
2023/08/24 06:52:20;;;;;;;;;;;20.30;67.90;;;;;;5081197;28;19932;-65
2023/08/24 06:54:48;;;;;;;;;;;20.40;67.50;;;;;;5078771;28;19954;-65
2023/08/24 06:57:15;;;;;;;;;;;20.40;68.20;;;;;;5073569;28;19928;-65
2023/08/24 06:59:42;;;;;;;;;;;20.40;66.30;;;;;;5075348;28;19932;-65
2023/08/24 07:02:09;;;;;;;;;;;20.40;67.70;;;;;;5077508;28;19929;-65
2023/08/24 07:04:39;;;;;;;;;;;20.40;68.10;;;;;;5072808;28;19925;-65
2023/08/24 07:07:06;;;;;;;;;;;20.50;68.40;;;;;;5073549;28;19928;-65
2023/08/24 07:09:33;;;;;;;;;;;20.50;67.90;;;;;;5074564;28;20295;-64
2023/08/24 07:12:01;;;;;;;;;;;20.50;67.00;;;;;;5074261;28;19932;-65
2023/08/24 07:14:28;;;;;;;;;;;20.50;68.30;;;;;;5077938;28;20011;-65
2023/08/24 07:16:56;;;;;;;;;;;20.50;68.00;;;;;;5070583;28;19982;-70
2023/08/24 07:19:23;;;;;;;;;;;20.60;67.80;;;;;;5073232;28;19928;-66
2023/08/24 07:21:50;;;;;;;;;;;20.60;66.90;;;;;;5078696;28;19943;-65
2023/08/24 07:24:22;;;;;;;;;;;20.60;68.20;;;;;;5073836;28;19955;-65
2023/08/24 07:27:09;;;;;;;;;;;20.60;68.00;;;;;;5073798;28;19928;-66
2023/08/24 07:29:37;;;;;;;;;;;20.60;67.20;;;;;;5070591;28;19962;-64
2023/08/24 07:32:04;;;;;;;;;;;20.60;67.30;;;;;;5070017;28;19932;-66
2023/08/24 07:34:31;;;;;;;;;;;20.60;66.90;;;;;;5074987;28;19986;-68
2023/08/24 07:36:58;;;;;;;;;;;20.70;67.30;;;;;;5071201;28;19929;-66
2023/08/24 07:39:26;;;;;;;;;;;20.70;67.50;;;;;;5068550;28;19932;-67
2023/08/24 07:41:54;;;;;;;;;;;20.70;66.40;;;;;;5071520;28;19928;-65
2023/08/24 07:44:21;;;;;;;;;;;20.70;66.90;;;;;;5071808;28;19928;-68
2023/08/24 07:46:49;;;;;;;;;;;20.80;67.30;;;;;;5074610;28;19929;-69
2023/08/24 07:49:16;;;;;;;;;;;20.80;66.40;;;;;;5071686;28;19964;-70
2023/08/24 07:51:43;;;;;;;;;;;20.80;67.10;;;;;;5073962;28;20822;-67
2023/08/24 07:54:11;;;;;;;;;;;20.80;66.20;;;;;;5076409;28;19924;-66
2023/08/24 07:56:38;;;;;;;;;;;20.80;66.30;;;;;;5075344;28;19942;-66
2023/08/24 07:59:05;;;;;;;;;;;20.80;66.60;;;;;;5072063;28;19955;-68
2023/08/24 08:01:32;;;;;;;;;;;20.90;66.50;;;;;;5070677;28;20286;-69
2023/08/24 08:04:00;;;;;;;;;;;20.90;66.10;;;;;;5074650;28;20267;-68
2023/08/24 08:06:27;;;;;;;;;;;20.90;66.90;;;;;;5077770;28;20019;-67
2023/08/24 08:08:54;;;;;;;;;;;20.90;66.40;;;;;;5081933;28;19928;-65
2023/08/24 08:11:21;;;;;;;;;;;21.00;66.60;;;;;;5077695;28;19932;-66
2023/08/24 08:13:48;;;;;;;;;;;21.00;66.70;;;;;;5075115;28;19933;-68
2023/08/24 08:16:16;;;;;;;;;;;21.00;66.50;;;;;;5078943;28;19936;-65
2023/08/24 08:18:43;;;;;;;;;;;21.00;66.30;;;;;;5078357;28;19932;-65
2023/08/24 08:21:14;;;;;;;;;;;21.00;66.40;;;;;;5075366;28;20381;-65
2023/08/24 08:23:41;;;;;;;;;;;21.10;66.80;;;;;;5079527;28;19924;-66
2023/08/24 08:26:10;;;;;;;;;;;21.10;66.20;;;;;;5077399;28;19924;-65
2023/08/24 08:28:37;;;;;;;;;;;21.10;66.60;;;;;;5081965;28;20426;-64
2023/08/24 08:31:04;;;;;;;;;;;21.10;66.40;;;;;;5064679;28;19932;-65
2023/08/24 08:33:31;;;;;;;;;;;21.20;67.10;;;;;;5078913;28;19931;-65
2023/08/24 08:35:58;;;;;;;;;;;21.20;66.90;;;;;;5078851;28;19982;-66
2023/08/24 08:38:29;;;;;;;;;;;21.20;66.50;;;;;;5080966;28;20347;-65
2023/08/24 08:40:58;;;;;;;;;;;21.20;66.00;;;;;;5074721;28;19935;-66
2023/08/24 08:43:25;;;;;;;;;;;21.30;66.30;;;;;;5080811;28;19975;-64
2023/08/24 08:45:55;;;;;;;;;;;21.30;65.90;;;;;;5077170;28;19932;-65
2023/08/24 08:48:23;;;;;;;;;;;21.30;65.00;;;;;;5077763;28;19935;-64
2023/08/24 08:50:51;;;;;;;;;;;21.40;66.40;;;;;;5069062;28;19932;-65
2023/08/24 08:53:20;;;;;;;;;;;21.40;65.40;;;;;;5074782;28;19932;-66
2023/08/24 08:55:47;;;;;;;;;;;21.50;65.00;;;;;;5073128;28;19971;-65
2023/08/24 08:58:14;;;;;;;;;;;21.50;65.50;;;;;;5077770;28;20015;-65
2023/08/24 09:00:42;;;;;;;;;;;21.50;66.10;;;;;;5074444;28;19989;-66
2023/08/24 09:03:10;;;;;;;;;;;21.50;66.00;;;;;;5072485;28;19928;-65
2023/08/24 09:05:37;;;;;;;;;;;21.50;66.30;;;;;;5072865;28;19943;-66
2023/08/24 09:08:05;;;;;;;;;;;21.60;65.10;;;;;;5071354;28;20655;-65
2023/08/24 09:10:32;;;;;;;;;;;21.60;64.10;;;;;;5075826;28;20330;-68
2023/08/24 09:12:59;;;;;;;;;;;21.60;64.70;;;;;;5075323;28;19924;-66
2023/08/24 09:15:27;;;;;;;;;;;21.70;63.80;;;;;;5074603;28;20042;-65
2023/08/24 09:17:56;;;;;;;;;;;21.70;65.30;;;;;;5069906;28;19990;-67
2023/08/24 09:20:27;;;;;;;;;;;21.70;63.80;;;;;;5073845;28;19928;-65
2023/08/24 09:22:56;;;;;;;;;;;21.80;64.00;;;;;;5073487;28;20327;-65
2023/08/24 09:25:24;;;;;;;;;;;21.80;64.40;;;;;;5078443;28;19932;-65
2023/08/24 09:28:01;;;;;;;;;;;21.80;64.40;;;;;;5075345;28;19929;-65
2023/08/24 09:30:29;;;;;;;;;;;21.80;64.50;;;;;;5072237;28;20718;-64
2023/08/24 09:33:00;;;;;;;;;;;21.80;62.70;;;;;;5077266;28;19938;-64
2023/08/24 09:35:28;;;;;;;;;;;21.80;64.10;;;;;;5074455;28;19928;-65
2023/08/24 09:37:55;;;;;;;;;;;21.80;62.80;;;;;;5074787;28;19940;-64
2023/08/24 09:40:26;;;;;;;;;;;21.80;63.60;;;;;;5079316;28;19936;-65
2023/08/24 09:42:53;;;;;;;;;;;21.80;64.30;;;;;;5077727;28;19924;-64
2023/08/24 09:45:20;;;;;;;;;;;21.80;64.10;;;;;;5077077;28;19929;-65
2023/08/24 09:47:51;;;;;;;;;;;21.70;63.90;;;;;;5074730;28;20035;-63
2023/08/24 09:50:18;;;;;;;;;;;21.70;63.20;;;;;;5075141;28;20040;-64
2023/08/24 09:52:47;;;;;;;;;;;21.70;63.30;;;;;;5073921;28;19924;-64
2023/08/24 09:55:18;;;;;;;;;;;21.70;63.70;;;;;;5077339;28;19969;-64
2023/08/24 09:57:45;;;;;;;;;;;21.60;63.10;;;;;;5082451;28;19928;-65
2023/08/24 10:00:17;;;;;;;;;;;21.60;62.80;;;;;;5077776;28;19938;-64
2023/08/24 10:02:50;;;;;;;;;;;21.50;62.40;;;;;;5074240;28;19947;-64
2023/08/24 10:05:20;;;;;;;;;;;21.50;62.30;;;;;;5076030;28;19940;-64
2023/08/24 10:07:55;;;;;;;;;;;21.50;62.90;;;;;;5074494;28;19939;-64
2023/08/24 10:10:24;;;;;;;;;;;21.40;62.40;;;;;;5078919;28;20410;-64
2023/08/24 10:12:56;;;;;;;;;;;21.40;62.50;;;;;;5081086;28;19924;-64
2023/08/24 10:15:24;;;;;;;;;;;21.30;62.40;;;;;;5077147;28;20479;-65
2023/08/24 10:17:52;;;;;;;;;;;21.40;63.80;;;;;;5069311;28;19974;-65
2023/08/24 10:20:19;;;;;;;;;;;21.30;63.80;;;;;;5079735;28;19939;-65
2023/08/24 10:22:47;;;;;;;;;;;21.30;63.40;;;;;;5070216;28;19928;-65
2023/08/24 10:25:15;;;;;;;;;;;21.30;63.50;;;;;;5076219;28;20015;-64
2023/08/24 10:27:43;;;;;;;;;;;21.40;63.60;;;;;;5076953;28;19935;-65
2023/08/24 10:30:11;;;;;;;;;;;21.40;64.00;;;;;;5075862;28;19944;-65
2023/08/24 10:32:39;;;;;;;;;;;21.40;63.20;;;;;;5071572;28;19932;-65
2023/08/24 10:35:07;;;;;;;;;;;21.40;64.00;;;;;;5080133;28;20624;-65
2023/08/24 10:37:34;;;;;;;;;;;21.40;63.80;;;;;;5076509;28;19978;-65
2023/08/24 10:40:01;;;;;;;;;;;21.40;64.10;;;;;;5080333;28;20336;-65
2023/08/24 10:42:28;;;;;;;;;;;21.40;64.60;;;;;;5075558;28;19957;-64
2023/08/24 10:44:55;;;;;;;;;;;21.40;64.10;;;;;;5076827;28;19974;-65
2023/08/24 10:47:22;;;;;;;;;;;21.40;63.80;;;;;;5069170;28;19975;-65
2023/08/24 10:50:00;;;;;;;;;;;21.40;64.00;;;;;;5075155;28;19970;-64
2023/08/24 10:52:33;;;;;;;;;;;21.50;63.20;;;;;;5078895;28;20288;-65
2023/08/24 10:55:00;;;;;;;;;;;21.50;64.20;;;;;;5079701;28;20385;-65
2023/08/24 10:57:38;;;;;;;;;;;21.60;63.90;;;;;;5082424;28;19931;-65
2023/08/24 11:00:09;;;;;;;;;;;21.60;63.40;;;;;;5071467;28;19962;-66
2023/08/24 11:02:43;;;;;;;;;;;21.70;63.10;;;;;;5072318;28;19932;-65
2023/08/24 11:05:19;;;;;;;;;;;21.70;63.30;;;;;;5080992;28;19928;-65
2023/08/24 11:07:57;;;;;;;;;;;21.70;60.80;;;;;;5070327;28;19955;-67
2023/08/24 11:10:25;;;;;;;;;;;21.80;63.20;;;;;;5076429;28;20380;-66
2023/08/24 11:13:09;;;;;;;;;;;21.80;63.30;;;;;;5071182;28;19943;-65
2023/08/24 11:15:38;;;;;;;;;;;21.80;63.20;;;;;;5069801;28;21696;-65
2023/08/24 11:18:26;;;;;;;;;;;21.90;62.10;;;;;;5076361;28;19928;-65
2023/08/24 11:20:54;;;;;;;;;;;21.90;61.30;;;;;;5074662;28;19975;-65
2023/08/24 11:23:22;;;;;;;;;;;21.90;60.90;;;;;;5089870;28;20024;-65
2023/08/24 11:25:56;;;;;;;;;;;22.00;62.50;;;;;;5078354;28;19936;-66
2023/08/24 11:28:25;;;;;;;;;;;22.00;63.30;;;;;;5071818;28;19933;-69
2023/08/24 11:30:52;;;;;;;;;;;22.00;62.00;;;;;;5076565;28;19924;-65
2023/08/24 11:33:30;;;;;;;;;;;22.10;63.00;;;;;;5075896;28;19947;-65
2023/08/24 11:35:57;;;;;;;;;;;22.10;61.90;;;;;;5078253;28;20664;-66
2023/08/24 11:38:25;;;;;;;;;;;22.10;61.70;;;;;;5080728;28;19924;-66
2023/08/24 11:40:52;;;;;;;;;;;22.20;61.10;;;;;;5080969;28;19935;-66
2023/08/24 11:43:26;;;;;;;;;;;22.20;61.60;;;;;;5082401;28;19932;-65
2023/08/24 11:45:54;;;;;;;;;;;22.30;61.00;;;;;;5079452;28;20387;-65
2023/08/24 11:48:26;;;;;;;;;;;22.30;60.60;;;;;;5082369;28;19981;-65
2023/08/24 11:50:54;;;;;;;;;;;22.40;62.30;;;;;;5076517;28;20372;-64
2023/08/24 11:53:22;;;;;;;;;;;22.40;61.90;;;;;;5070096;28;19931;-65
2023/08/24 11:55:52;;;;;;;;;;;22.40;61.60;;;;;;5075589;28;19928;-66
2023/08/24 11:58:32;;;;;;;;;;;22.50;61.80;;;;;;5087161;28;21058;-67
2023/08/24 12:01:00;;;;;;;;;;;22.50;59.10;;;;;;5074393;28;19981;-66
2023/08/24 12:03:27;;;;;;;;;;;22.50;61.80;;;;;;5077869;28;20378;-67
2023/08/24 12:05:58;;;;;;;;;;;22.50;60.80;;;;;;5080760;28;19925;-65
2023/08/24 12:08:25;;;;;;;;;;;22.50;60.50;;;;;;5077381;28;19933;-65
2023/08/24 12:10:52;;;;;;;;;;;22.50;60.30;;;;;;5076856;28;19928;-65
2023/08/24 12:13:19;;;;;;;;;;;22.50;61.30;;;;;;5079692;28;20372;-66
2023/08/24 12:15:47;;;;;;;;;;;22.50;59.60;;;;;;5081364;28;19932;-65
2023/08/24 12:18:14;;;;;;;;;;;22.50;60.80;;;;;;5075806;28;19931;-66
2023/08/24 12:20:42;;;;;;;;;;;22.50;60.20;;;;;;5082345;28;19932;-65
2023/08/24 12:23:10;;;;;;;;;;;22.50;59.10;;;;;;5078097;28;19933;-66
2023/08/24 12:25:38;;;;;;;;;;;22.50;59.50;;;;;;5075888;28;19977;-65
2023/08/24 12:28:09;;;;;;;;;;;22.50;60.10;;;;;;5079574;28;19933;-65
2023/08/24 12:30:46;;;;;;;;;;;22.50;58.90;;;;;;5084452;28;20379;-65
2023/08/24 12:33:24;;;;;;;;;;;22.50;58.90;;;;;;5084661;28;20329;-65
2023/08/24 12:35:51;;;;;;;;;;;22.50;58.70;;;;;;5078593;28;19939;-65
2023/08/24 12:38:18;;;;;;;;;;;22.50;59.00;;;;;;5082812;28;19955;-65
2023/08/24 12:40:46;;;;;;;;;;;22.40;59.20;;;;;;5078308;28;19932;-66
2023/08/24 12:43:13;;;;;;;;;;;22.40;59.20;;;;;;5081782;28;19974;-65
2023/08/24 12:45:40;;;;;;;;;;;22.40;58.10;;;;;;5072271;28;20296;-65
2023/08/24 12:48:09;;;;;;;;;;;22.40;60.10;;;;;;5079442;28;19970;-65
2023/08/24 12:50:37;;;;;;;;;;;22.40;59.90;;;;;;5076121;28;20292;-65
2023/08/24 12:53:06;;;;;;;;;;;22.40;59.20;;;;;;5077841;28;19978;-66
2023/08/24 12:55:33;;;;;;;;;;;22.40;60.40;;;;;;5082737;28;19928;-64
2023/08/24 12:58:00;;;;;;;;;;;22.40;59.70;;;;;;5071656;28;19925;-64
2023/08/24 13:00:27;;;;;;;;;;;22.30;60.00;;;;;;5077960;28;19932;-64
2023/08/24 13:02:55;;;;;;;;;;;22.30;59.40;;;;;;5080735;28;19924;-64
2023/08/24 13:05:23;;;;;;;;;;;22.30;59.80;;;;;;5079645;28;19925;-64
2023/08/24 13:07:51;;;;;;;;;;;22.30;60.20;;;;;;5082467;28;19969;-64
2023/08/24 13:10:18;;;;;;;;;;;22.30;59.30;;;;;;5081053;28;19955;-65
2023/08/24 13:12:45;;;;;;;;;;;22.30;59.40;;;;;;5080607;28;19936;-65
2023/08/24 13:15:12;;;;;;;;;;;22.30;60.00;;;;;;5075322;28;19928;-65
2023/08/24 13:17:40;;;;;;;;;;;22.30;59.20;;;;;;5070591;28;19928;-66
2023/08/24 13:20:08;;;;;;;;;;;22.30;59.60;;;;;;5079501;28;20399;-65
2023/08/24 13:22:35;;;;;;;;;;;22.30;58.80;;;;;;5081862;28;19925;-65
2023/08/24 13:25:02;;;;;;;;;;;22.30;59.30;;;;;;5082129;28;20330;-65
2023/08/24 13:27:29;;;;;;;;;;;22.30;59.40;;;;;;5081470;28;19924;-65
2023/08/24 13:30:00;;;;;;;;;;;22.30;59.30;;;;;;5079233;28;20437;-65
2023/08/24 13:32:28;;;;;;;;;;;22.30;59.20;;;;;;5076981;28;19932;-64
2023/08/24 13:34:55;;;;;;;;;;;22.30;60.20;;;;;;5075015;28;20326;-65
2023/08/24 13:37:23;;;;;;;;;;;22.30;61.00;;;;;;5078568;28;19943;-64
2023/08/24 13:39:51;;;;;;;;;;;22.30;59.90;;;;;;5076061;28;19932;-65
2023/08/24 13:42:18;;;;;;;;;;;22.30;59.60;;;;;;5076088;28;20334;-65
2023/08/24 13:44:46;;;;;;;;;;;22.20;59.80;;;;;;5079938;28;19924;-65
2023/08/24 13:47:13;;;;;;;;;;;22.20;59.90;;;;;;5074611;28;19932;-64
2023/08/24 13:49:40;;;;;;;;;;;22.20;60.00;;;;;;5072004;28;19924;-64
2023/08/24 13:52:08;;;;;;;;;;;22.20;61.00;;;;;;5082695;28;19924;-65
2023/08/24 13:54:35;;;;;;;;;;;22.20;60.10;;;;;;5085392;28;19932;-65
2023/08/24 13:57:02;;;;;;;;;;;22.20;60.20;;;;;;5079519;28;20441;-59
2023/08/24 13:59:29;;;;;;;;;;;22.20;60.40;;;;;;5073760;28;19924;-59
2023/08/24 14:01:56;;;;;;;;;;;22.10;60.30;;;;;;5080822;28;19925;-58
2023/08/24 14:04:23;;;;;;;;;;;22.10;59.10;;;;;;5084778;28;19978;-58
2023/08/24 14:06:50;;;;;;;;;;;22.20;67.70;;;;;;5077550;28;19928;-60
2023/08/24 14:09:17;;;;;;;;;;;22.50;74.00;;;;;;5076564;28;19932;-59
2023/08/24 14:11:44;;;;;;;;;;;22.70;75.80;;;;;;5084589;28;20299;-59
2023/08/24 14:14:11;;;;;;;;;;;23.10;76.30;;;;;;5082144;28;20372;-59
2023/08/24 14:16:39;;;;;;;;;;;23.40;76.10;;;;;;5077480;28;19924;-59
2023/08/24 14:19:06;;;;;;;;;;;23.70;76.20;;;;;;5083122;28;19924;-59
2023/08/24 14:21:34;;;;;;;;;;;24.00;75.80;;;;;;5082423;28;20402;-59